createdAt,value
2022-10-23T00:01:45.266Z,101142.91
2022-10-23T00:04:17.848Z,101143.84
2022-10-23T00:06:45.185Z,101152.41
2022-10-23T00:09:14.003Z,101146.28
2022-10-23T00:11:41.674Z,101149.72
2022-10-23T00:14:08.857Z,101140.03
2022-10-23T00:16:36.292Z,101139.69
2022-10-23T00:19:03.938Z,101144.28
2022-10-23T00:21:31.056Z,101138.84
2022-10-23T00:23:57.774Z,101144.63
2022-10-23T00:26:24.468Z,101147.97
2022-10-23T00:28:53.247Z,101150.44
2022-10-23T00:31:21.745Z,101139.59
2022-10-23T00:33:48.444Z,101146.63
2022-10-23T00:36:18.002Z,101150.56
2022-10-23T00:38:45.711Z,101155.97
2022-10-23T00:41:24.858Z,101144.50
2022-10-23T00:44:05.480Z,101155.50
2022-10-23T00:46:32.920Z,101138.88
2022-10-23T00:49:00.591Z,101142.63
2022-10-23T00:51:38.576Z,101138.00
2022-10-23T00:54:27.699Z,101141.56
2022-10-23T00:56:58.167Z,101141.25
2022-10-23T00:59:25.389Z,101144.03
2022-10-23T01:01:52.354Z,101140.91
2022-10-23T01:04:19.326Z,101147.56
2022-10-23T01:07:17.659Z,101157.25
2022-10-23T01:10:05.751Z,101155.44
2022-10-23T01:12:57.158Z,101154.53
2022-10-23T01:15:55.212Z,101143.81
2022-10-23T01:18:30.293Z,101136.88
2022-10-23T01:21:08.994Z,101137.88
2022-10-23T01:24:00.834Z,101139.25
2022-10-23T01:26:27.412Z,101141.25
2022-10-23T01:29:29.066Z,101131.72
2022-10-23T01:32:08.338Z,101140.56
2022-10-23T01:35:08.411Z,101137.66
2022-10-23T01:37:51.068Z,101130.53
2022-10-23T01:40:28.228Z,101132.75
2022-10-23T01:43:04.503Z,101131.03
2022-10-23T01:45:48.225Z,101131.09
2022-10-23T01:48:23.473Z,101133.97
2022-10-23T01:50:52.832Z,101132.44
2022-10-23T01:53:24.550Z,101123.59
2022-10-23T01:55:51.979Z,101138.38
2022-10-23T01:58:30.866Z,101136.44
2022-10-23T02:01:01.774Z,101130.25
2022-10-23T02:03:38.971Z,101123.22
2022-10-23T02:06:05.996Z,101124.91
2022-10-23T02:08:33.033Z,101116.34
2022-10-23T02:11:13.070Z,101113.50
2022-10-23T02:13:50.074Z,101117.94
2022-10-23T02:16:30.345Z,101121.31
2022-10-23T02:19:15.428Z,101126.16
2022-10-23T02:21:51.198Z,101116.31
2022-10-23T02:24:32.313Z,101108.34
2022-10-23T02:27:03.365Z,101117.94
2022-10-23T02:29:32.786Z,101105.31
2022-10-23T02:32:01.467Z,101108.78
2022-10-23T02:34:28.223Z,101109.81
2022-10-23T02:36:54.938Z,101110.03
2022-10-23T02:39:26.305Z,101118.41
2022-10-23T02:42:15.193Z,101114.63
2022-10-23T02:44:54.726Z,101113.34
2022-10-23T02:47:24.429Z,101111.34
2022-10-23T02:50:03.127Z,101119.78
2022-10-23T02:52:48.591Z,101115.88
2022-10-23T02:55:37.799Z,101116.50
2022-10-23T02:58:24.243Z,101118.56
2022-10-23T03:00:58.247Z,101116.84
2022-10-23T03:03:33.678Z,101107.56
2022-10-23T03:06:00.948Z,101112.25
2022-10-23T03:08:29.420Z,101115.63
2022-10-23T03:10:58.759Z,101122.06
2022-10-23T03:13:27.924Z,101118.75
2022-10-23T03:15:54.763Z,101110.34
2022-10-23T03:18:23.637Z,101111.38
2022-10-23T03:20:52.074Z,101095.22
2022-10-23T03:23:22.313Z,101103.25
2022-10-23T03:25:49.057Z,101098.16
2022-10-23T03:28:29.454Z,101104.94
2022-10-23T03:30:58.534Z,101111.13
2022-10-23T03:33:25.916Z,101108.31
2022-10-23T03:35:52.674Z,101122.09
2022-10-23T03:38:19.410Z,101111.56
2022-10-23T03:40:46.113Z,101116.47
2022-10-23T03:43:13.354Z,101102.69
2022-10-23T03:45:40.800Z,101109.69
2022-10-23T03:48:08.411Z,101111.00
2022-10-23T03:50:36.001Z,101107.53
2022-10-23T03:53:02.777Z,101098.75
2022-10-23T03:55:29.931Z,101108.06
2022-10-23T03:57:56.662Z,101103.38
2022-10-23T04:00:23.477Z,101094.56
2022-10-23T04:02:50.102Z,101109.69
2022-10-23T04:05:16.998Z,101110.88
2022-10-23T04:07:53.765Z,101099.53
2022-10-23T04:10:20.737Z,101104.97
2022-10-23T04:12:47.525Z,101102.75
2022-10-23T04:15:14.483Z,101097.44
2022-10-23T04:17:44.981Z,101096.25
2022-10-23T04:20:12.469Z,101101.56
2022-10-23T04:22:39.310Z,101092.19
2022-10-23T04:25:06.237Z,101092.97
2022-10-23T04:27:34.611Z,101095.09
2022-10-23T04:30:01.555Z,101096.03
2022-10-23T04:32:28.388Z,101098.78
2022-10-23T04:34:55.298Z,101098.63
2022-10-23T04:37:22.875Z,101079.13
2022-10-23T04:39:49.601Z,101084.44
2022-10-23T04:42:19.614Z,101073.41
2022-10-23T04:44:47.429Z,101078.84
2022-10-23T04:47:14.281Z,101080.03
2022-10-23T04:49:54.287Z,101074.34
2022-10-23T04:52:57.254Z,101067.81
2022-10-23T04:55:55.479Z,101068.25
2022-10-23T04:58:52.596Z,101065.16
2022-10-23T05:01:19.690Z,101063.34
2022-10-23T05:03:48.083Z,101068.03
2022-10-23T05:06:15.127Z,101064.22
2022-10-23T05:09:08.284Z,101067.56
2022-10-23T05:12:10.527Z,101075.69
2022-10-23T05:14:37.310Z,101071.56
2022-10-23T05:17:13.562Z,101069.66
2022-10-23T05:19:46.013Z,101071.81
2022-10-23T05:22:13.975Z,101065.16
2022-10-23T05:24:50.741Z,101059.72
2022-10-23T05:27:21.777Z,101064.34
2022-10-23T05:29:48.845Z,101063.78
2022-10-23T05:32:18.983Z,101060.16
2022-10-23T05:34:45.958Z,101058.59
2022-10-23T05:37:15.777Z,101063.56
2022-10-23T05:39:42.939Z,101054.69
2022-10-23T05:42:12.939Z,101054.88
2022-10-23T05:44:41.242Z,101058.38
2022-10-23T05:47:31.519Z,101058.31
2022-10-23T05:50:06.675Z,101058.16
2022-10-23T05:52:49.741Z,101066.78
2022-10-23T05:55:43.474Z,101059.53
2022-10-23T05:58:30.652Z,101061.75
2022-10-23T06:01:10.183Z,101072.44
2022-10-23T06:03:55.172Z,101066.25
2022-10-23T06:06:28.059Z,101073.56
2022-10-23T06:08:57.415Z,101077.22
2022-10-23T06:11:24.315Z,101077.75
2022-10-23T06:14:00.645Z,101073.13
2022-10-23T06:16:27.715Z,101076.97
2022-10-23T06:18:55.087Z,101072.66
2022-10-23T06:21:22.266Z,101071.50
2022-10-23T06:23:50.637Z,101074.97
2022-10-23T06:26:20.043Z,101076.50
2022-10-23T06:28:56.406Z,101078.84
2022-10-23T06:31:26.874Z,101080.81
2022-10-23T06:33:55.986Z,101086.56
2022-10-23T06:36:22.955Z,101074.06
2022-10-23T06:38:51.880Z,101075.72
2022-10-23T06:41:22.860Z,101071.72
2022-10-23T06:43:54.795Z,101071.78
2022-10-23T06:46:40.986Z,101068.59
2022-10-23T06:49:34.704Z,101071.41
2022-10-23T06:52:14.244Z,101063.69
2022-10-23T06:54:47.947Z,101063.41
2022-10-23T06:57:24.670Z,101072.66
2022-10-23T06:59:51.258Z,101066.69
2022-10-23T07:02:18.340Z,101061.19
2022-10-23T07:04:44.934Z,101066.78
2022-10-23T07:07:16.561Z,101063.91
2022-10-23T07:09:46.882Z,101058.41
2022-10-23T07:12:36.897Z,101062.06
2022-10-23T07:15:21.984Z,101061.63
2022-10-23T07:17:48.634Z,101070.28
2022-10-23T07:20:15.520Z,101064.66
2022-10-23T07:22:42.597Z,101068.81
2022-10-23T07:25:13.223Z,101062.41
2022-10-23T07:27:40.933Z,101065.09
2022-10-23T07:30:09.895Z,101070.91
2022-10-23T07:32:52.290Z,101069.84
2022-10-23T07:35:33.044Z,101073.63
2022-10-23T07:38:06.365Z,101074.47
2022-10-23T07:40:37.127Z,101074.41
2022-10-23T07:43:04.761Z,101074.22
2022-10-23T07:45:31.374Z,101076.03
2022-10-23T07:48:03.637Z,101067.06
2022-10-23T07:50:44.631Z,101076.50
2022-10-23T07:53:20.867Z,101071.19
2022-10-23T07:56:02.414Z,101074.03
2022-10-23T07:58:53.759Z,101069.13
2022-10-23T08:01:31.912Z,101066.53
2022-10-23T08:04:00.141Z,101073.31
2022-10-23T08:06:27.512Z,101068.41
2022-10-23T08:08:54.246Z,101071.13
2022-10-23T08:11:27.061Z,101063.09
2022-10-23T08:13:56.436Z,101065.19
2022-10-23T08:16:26.057Z,101051.31
2022-10-23T08:18:55.605Z,101053.31
2022-10-23T08:21:23.229Z,101044.16
2022-10-23T08:23:57.353Z,101052.19
2022-10-23T08:26:25.783Z,101047.94
2022-10-23T08:28:53.156Z,101040.34
2022-10-23T08:31:21.302Z,101044.34
2022-10-23T08:34:06.125Z,101047.09
2022-10-23T08:36:33.934Z,101044.63
2022-10-23T08:39:00.679Z,101048.91
2022-10-23T08:41:36.161Z,101047.28
2022-10-23T08:44:38.275Z,101040.50
2022-10-23T08:47:15.581Z,101036.78
2022-10-23T08:50:19.800Z,101042.25
2022-10-23T08:52:55.021Z,101028.47
2022-10-23T08:55:33.574Z,101029.44
2022-10-23T08:58:23.428Z,101036.50
2022-10-23T09:00:50.475Z,101031.13
2022-10-23T09:03:18.363Z,101042.47
2022-10-23T09:06:01.759Z,101026.69
2022-10-23T09:08:53.143Z,101023.56
2022-10-23T09:11:31.270Z,101024.72
2022-10-23T09:14:09.644Z,101027.47
2022-10-23T09:17:16.391Z,101026.91
2022-10-23T09:19:45.541Z,101030.13
2022-10-23T09:22:13.532Z,101030.63
2022-10-23T09:24:43.256Z,101022.38
2022-10-23T09:27:16.761Z,101018.47
2022-10-23T09:29:54.502Z,101015.56
2022-10-23T09:32:33.398Z,101016.06
2022-10-23T09:34:59.966Z,101009.44
2022-10-23T09:37:32.733Z,101005.97
2022-10-23T09:40:14.609Z,100996.75
2022-10-23T09:43:01.588Z,101015.19
2022-10-23T09:45:34.548Z,101011.88
2022-10-23T09:48:12.769Z,101014.28
2022-10-23T09:50:48.447Z,101017.38
2022-10-23T09:53:18.902Z,101024.69
2022-10-23T09:55:52.523Z,101020.66
2022-10-23T09:58:30.575Z,101019.06
2022-10-23T10:00:57.699Z,101026.25
2022-10-23T10:03:49.038Z,101023.44
2022-10-23T10:06:23.012Z,101020.66
2022-10-23T10:08:54.238Z,101011.13
2022-10-23T10:11:51.997Z,101025.09
2022-10-23T10:14:40.553Z,101012.81
2022-10-23T10:17:23.741Z,101012.50
2022-10-23T10:19:50.266Z,101004.22
2022-10-23T10:22:28.353Z,101013.66
2022-10-23T10:25:13.164Z,100999.19
2022-10-23T10:28:02.375Z,101002.88
2022-10-23T10:31:00.896Z,100983.47
2022-10-23T10:33:27.412Z,100983.72
2022-10-23T10:36:09.787Z,100980.31
2022-10-23T10:38:59.639Z,100981.66
2022-10-23T10:41:44.404Z,100968.28
2022-10-23T10:44:36.379Z,100976.41
2022-10-23T10:47:14.902Z,100967.91
2022-10-23T10:50:16.404Z,100948.41
2022-10-23T10:53:12.124Z,100956.59
2022-10-23T10:55:41.741Z,100944.53
2022-10-23T10:58:20.354Z,100954.91
2022-10-23T11:00:53.217Z,100937.00
2022-10-23T11:03:48.867Z,100928.97
2022-10-23T11:06:20.311Z,100924.19
2022-10-23T11:08:57.207Z,100933.31
2022-10-23T11:11:32.903Z,100930.34
2022-10-23T11:13:59.886Z,100918.53
2022-10-23T11:16:37.450Z,100911.84
2022-10-23T11:19:18.212Z,100917.53
2022-10-23T11:21:53.970Z,100911.66
2022-10-23T11:24:49.524Z,100913.06
2022-10-23T11:27:17.305Z,100923.31
2022-10-23T11:29:57.564Z,100903.22
2022-10-23T11:32:51.860Z,100893.44
2022-10-23T11:35:32.871Z,100889.94
2022-10-23T11:38:19.506Z,100877.41
2022-10-23T11:43:27.422Z,100874.53
2022-10-23T11:45:54.300Z,100886.09
2022-10-23T11:48:22.672Z,100878.13
2022-10-23T11:50:52.127Z,100868.03
2022-10-23T11:53:39.967Z,100858.75
2022-10-23T11:56:12.431Z,100851.94
2022-10-23T11:58:43.459Z,100847.53
2022-10-23T12:01:28.313Z,100850.22
2022-10-23T12:04:00.567Z,100842.50
2022-10-23T12:06:39.980Z,100842.94
2022-10-23T12:09:21.964Z,100833.31
2022-10-23T12:12:01.211Z,100822.09
2022-10-23T12:14:47.766Z,100822.47
2022-10-23T12:17:20.158Z,100826.47
2022-10-23T12:20:12.719Z,100811.75
2022-10-23T12:23:17.056Z,100816.47
2022-10-23T12:26:21.706Z,100816.75
2022-10-23T12:29:24.901Z,100817.81
2022-10-23T12:31:58.855Z,100809.66
2022-10-23T12:34:56.314Z,100806.50
2022-10-23T12:37:44.350Z,100804.88
2022-10-23T12:40:12.200Z,100802.13
2022-10-23T12:42:39.778Z,100789.66
2022-10-23T12:45:16.210Z,100775.53
2022-10-23T12:47:44.913Z,100774.38
2022-10-23T12:50:29.407Z,100772.84
2022-10-23T12:53:06.662Z,100771.84
2022-10-23T12:55:56.402Z,100767.28
2022-10-23T12:58:35.009Z,100757.00
2022-10-23T13:01:06.969Z,100740.47
2022-10-23T13:03:35.267Z,100733.19
2022-10-23T13:06:03.094Z,100733.34
2022-10-23T13:08:36.933Z,100725.03
2022-10-23T13:11:28.111Z,100710.19
2022-10-23T13:13:58.780Z,100716.22
2022-10-23T13:16:27.109Z,100709.19
2022-10-23T13:18:54.438Z,100710.03
2022-10-23T13:21:29.223Z,100702.22
2022-10-23T13:23:56.462Z,100702.16
2022-10-23T13:26:33.464Z,100693.44
2022-10-23T13:29:07.334Z,100677.34
2022-10-23T13:31:36.301Z,100674.50
2022-10-23T13:34:17.294Z,100673.31
2022-10-23T13:37:22.933Z,100675.97
2022-10-23T13:40:00.457Z,100673.19
2022-10-23T13:42:27.056Z,100669.59
2022-10-23T13:44:53.740Z,100662.38
2022-10-23T13:47:20.275Z,100659.91
2022-10-23T13:49:47.012Z,100660.53
2022-10-23T13:52:19.283Z,100644.78
2022-10-23T13:54:46.064Z,100648.53
2022-10-23T13:57:15.256Z,100633.03
2022-10-23T13:59:42.713Z,100623.44
2022-10-23T14:02:20.655Z,100630.59
2022-10-23T14:04:48.843Z,100625.53
2022-10-23T14:07:15.831Z,100616.31
2022-10-23T14:09:42.422Z,100623.31
2022-10-23T14:12:09.024Z,100622.41
2022-10-23T14:14:35.547Z,100630.59
2022-10-23T14:17:02.146Z,100622.16
2022-10-23T14:19:28.758Z,100628.38
2022-10-23T14:21:55.406Z,100634.00
2022-10-23T14:24:22.213Z,100632.00
2022-10-23T14:26:48.784Z,100627.56
2022-10-23T14:29:23.003Z,100621.97
2022-10-23T14:31:50.949Z,100611.47
2022-10-23T14:34:17.685Z,100613.06
2022-10-23T14:36:50.341Z,100613.31
2022-10-23T14:39:18.097Z,100602.88
2022-10-23T14:41:44.568Z,100612.06
2022-10-23T14:44:11.076Z,100610.66
2022-10-23T14:46:38.428Z,100619.75
2022-10-23T14:49:05.302Z,100614.19
2022-10-23T14:51:31.777Z,100621.72
2022-10-23T14:54:01.779Z,100616.66
2022-10-23T14:56:30.321Z,100613.00
2022-10-23T14:59:02.915Z,100608.69
2022-10-23T15:01:35.934Z,100594.50
2022-10-23T15:04:02.861Z,100591.44
2022-10-23T15:06:29.486Z,100584.56
2022-10-23T15:08:56.298Z,100590.66
2022-10-23T15:11:24.529Z,100591.03
2022-10-23T15:13:52.197Z,100604.16
2022-10-23T15:16:18.693Z,100591.91
2022-10-23T15:18:45.187Z,100587.09
2022-10-23T15:21:11.865Z,100579.09
2022-10-23T15:23:40.575Z,100577.56
2022-10-23T15:26:20.819Z,100594.44
2022-10-23T15:28:52.619Z,100583.34
2022-10-23T15:31:37.864Z,100572.81
2022-10-23T15:34:05.758Z,100552.94
2022-10-23T15:36:32.916Z,100551.94
2022-10-23T15:38:59.637Z,100544.88
2022-10-23T15:41:37.311Z,100533.72
2022-10-23T15:46:17.272Z,100530.78
2022-10-23T15:48:54.317Z,100526.91
2022-10-23T15:51:21.429Z,100524.91
2022-10-23T15:53:48.459Z,100520.66
2022-10-23T15:56:18.164Z,100528.22
2022-10-23T15:58:55.601Z,100521.41
2022-10-23T16:01:22.452Z,100532.94
2022-10-23T16:03:52.170Z,100528.63
2022-10-23T16:06:27.281Z,100526.94
2022-10-23T16:08:57.568Z,100527.50
2022-10-23T16:11:32.174Z,100510.44
2022-10-23T16:14:04.518Z,100507.81
2022-10-23T16:16:33.208Z,100479.56
2022-10-23T16:19:02.112Z,100467.31
2022-10-23T16:21:39.825Z,100443.53
2022-10-23T16:24:12.486Z,100436.84
2022-10-23T16:47:10.347Z,100428.75
2022-10-23T16:54:56.587Z,100447.25
2022-10-23T17:10:04.690Z,100437.94
2022-10-23T17:12:31.391Z,100440.03
2022-10-23T17:14:58.246Z,100426.59
2022-10-23T17:17:24.851Z,100420.41
2022-10-23T17:19:51.435Z,100423.13
2022-10-23T17:22:18.260Z,100427.06
2022-10-23T17:24:47.457Z,100425.69
2022-10-23T17:27:16.970Z,100419.34
2022-10-23T17:29:43.611Z,100415.16
2022-10-23T17:32:10.417Z,100421.94
2022-10-23T17:34:37.094Z,100411.31
2022-10-23T17:37:03.741Z,100405.44
2022-10-23T17:39:30.403Z,100415.16
2022-10-23T17:41:57.548Z,100411.56
2022-10-23T17:44:24.774Z,100408.78
2022-10-23T17:46:53.631Z,100398.59
2022-10-23T17:49:21.258Z,100398.03
2022-10-23T17:51:53.493Z,100377.34
2022-10-23T17:54:20.913Z,100374.09
2022-10-23T17:56:47.594Z,100378.00
2022-10-23T17:59:17.413Z,100364.69
2022-10-23T18:01:46.461Z,100360.63
2022-10-23T18:04:14.373Z,100357.72
2022-10-23T18:06:47.768Z,100346.19
2022-10-23T18:09:14.759Z,100343.34
2022-10-23T18:11:45.539Z,100344.81
2022-10-23T18:14:16.267Z,100344.06
2022-10-23T18:16:42.988Z,100340.94
2022-10-23T18:19:10.511Z,100333.38
2022-10-23T18:21:38.088Z,100341.84
2022-10-23T18:24:05.170Z,100354.25
2022-10-23T18:26:34.971Z,100360.34
2022-10-23T18:29:04.380Z,100367.50
2022-10-23T18:31:31.089Z,100367.41
2022-10-23T18:34:01.462Z,100366.75
2022-10-23T18:36:33.274Z,100370.25
2022-10-23T18:39:00.156Z,100369.13
2022-10-23T18:41:28.049Z,100355.09
2022-10-23T18:43:55.133Z,100350.56
2022-10-23T18:46:22.243Z,100354.47
2022-10-23T18:48:50.832Z,100347.56
2022-10-23T18:51:26.305Z,100343.00
2022-10-23T18:53:53.311Z,100353.28
2022-10-23T18:56:23.379Z,100364.00
2022-10-23T18:58:51.251Z,100363.06
2022-10-23T19:01:24.660Z,100370.81
2022-10-23T19:03:51.363Z,100366.59
2022-10-23T19:06:19.763Z,100356.94
2022-10-23T19:08:49.751Z,100362.56
2022-10-23T19:11:20.935Z,100365.19
2022-10-23T19:13:49.846Z,100359.41
2022-10-23T19:16:21.358Z,100340.72
2022-10-23T19:19:01.500Z,100343.88
2022-10-23T19:21:32.883Z,100350.75
2022-10-23T19:24:06.818Z,100353.56
2022-10-23T19:26:35.618Z,100365.47
2022-10-23T19:29:03.159Z,100369.66
2022-10-23T19:31:30.794Z,100353.19
2022-10-23T19:33:57.778Z,100360.09
2022-10-23T19:36:24.540Z,100361.31
2022-10-23T19:38:51.445Z,100355.34
2022-10-23T19:41:18.869Z,100362.41
2022-10-23T19:43:50.000Z,100357.75
2022-10-23T19:46:17.015Z,100352.41
2022-10-23T19:48:47.041Z,100351.94
2022-10-23T19:51:14.169Z,100347.88
2022-10-23T19:53:43.839Z,100359.75
2022-10-23T19:56:12.223Z,100365.41
2022-10-23T19:58:39.527Z,100375.16
2022-10-23T20:01:08.608Z,100373.16
2022-10-23T20:03:35.346Z,100389.06
2022-10-23T20:06:04.559Z,100391.63
2022-10-23T20:08:34.240Z,100380.25
2022-10-23T20:11:01.961Z,100387.06
2022-10-23T20:13:28.807Z,100371.69
2022-10-23T20:15:55.938Z,100375.38
2022-10-23T20:18:23.567Z,100376.66
2022-10-23T20:20:51.558Z,100372.03
2022-10-23T20:23:18.077Z,100378.09
2022-10-23T20:25:46.062Z,100374.94
2022-10-23T20:28:14.424Z,100366.25
2022-10-23T20:30:42.575Z,100361.22
2022-10-23T20:33:13.118Z,100357.25
2022-10-23T20:35:41.204Z,100352.34
2022-10-23T20:38:08.581Z,100353.31
2022-10-23T20:40:36.001Z,100345.72
2022-10-23T20:43:02.799Z,100334.34
2022-10-23T20:45:29.532Z,100339.19
2022-10-23T20:47:57.775Z,100330.72
2022-10-23T20:50:24.382Z,100327.66
2022-10-23T20:52:51.667Z,100326.31
2022-10-23T20:55:18.975Z,100317.03
2022-10-23T20:57:48.519Z,100306.91
2022-10-23T21:00:15.616Z,100278.13
2022-10-23T21:02:43.838Z,100248.63
2022-10-23T21:05:15.364Z,100200.94
2022-10-23T21:07:41.969Z,100228.56
2022-10-23T21:10:17.413Z,100273.34
2022-10-23T21:12:47.013Z,100292.88
2022-10-23T21:15:13.621Z,100267.97
2022-10-23T21:17:40.963Z,100287.03
2022-10-23T21:20:07.793Z,100293.53
2022-10-23T21:22:34.378Z,100273.94
2022-10-23T21:25:01.619Z,100285.72
2022-10-23T21:27:28.144Z,100280.31
2022-10-23T21:29:54.755Z,100261.69
2022-10-23T21:32:21.258Z,100261.75
2022-10-23T21:34:47.844Z,100258.81
2022-10-23T21:37:14.970Z,100254.53
2022-10-23T21:39:48.192Z,100241.03
2022-10-23T21:42:15.413Z,100233.47
2022-10-23T21:44:45.030Z,100232.78
2022-10-23T21:47:11.669Z,100232.75
2022-10-23T21:49:38.191Z,100214.81
2022-10-23T21:52:04.968Z,100205.00
2022-10-23T21:54:32.110Z,100168.69
2022-10-23T21:56:58.733Z,100164.94
2022-10-23T21:59:29.013Z,100161.78
2022-10-23T22:01:57.217Z,100138.16
2022-10-23T22:04:24.326Z,100118.56
2022-10-23T22:06:51.129Z,100139.22
2022-10-23T22:09:21.794Z,100109.09
2022-10-23T22:11:52.970Z,100121.44
2022-10-23T22:14:20.270Z,100139.09
2022-10-23T22:16:46.971Z,100147.22
2022-10-23T22:19:16.134Z,100142.44
2022-10-23T22:21:43.542Z,100120.03
2022-10-23T22:24:10.771Z,100151.69
2022-10-23T22:26:40.797Z,100132.56
2022-10-23T22:29:13.321Z,100161.91
2022-10-23T22:31:44.142Z,100159.25
2022-10-23T22:34:28.655Z,100169.47
2022-10-23T22:37:07.895Z,100168.97
2022-10-23T22:39:34.450Z,100167.63
2022-10-23T22:42:01.049Z,100181.63
2022-10-23T22:44:27.737Z,100179.00
2022-10-23T22:46:57.456Z,100166.44
2022-10-23T22:49:26.714Z,100189.06
2022-10-23T22:51:55.394Z,100177.53
2022-10-23T22:54:25.664Z,100191.22
2022-10-23T22:56:54.711Z,100176.47
2022-10-23T22:59:21.326Z,100163.63
2022-10-23T23:01:48.527Z,100171.13
2022-10-23T23:04:37.850Z,100176.75
2022-10-23T23:07:05.617Z,100179.00
2022-10-23T23:09:32.145Z,100191.69
2022-10-23T23:11:58.724Z,100200.88
2022-10-23T23:14:26.113Z,100205.28
2022-10-23T23:16:53.115Z,100202.56
2022-10-23T23:19:20.291Z,100202.72
2022-10-23T23:21:46.879Z,100207.50
2022-10-23T23:24:13.667Z,100226.19
2022-10-23T23:26:40.653Z,100241.09
2022-10-23T23:29:07.186Z,100238.97
2022-10-23T23:31:33.727Z,100240.03
2022-10-23T23:34:04.004Z,100239.50
2022-10-23T23:36:33.997Z,100242.59
2022-10-23T23:41:30.834Z,100256.94
2022-10-23T23:44:00.611Z,100249.78
2022-10-23T23:46:27.344Z,100247.63
2022-10-23T23:48:54.040Z,100254.22
2022-10-23T23:51:25.191Z,100259.53
2022-10-23T23:53:52.676Z,100259.50
2022-10-23T23:56:19.873Z,100260.97
2022-10-23T23:58:46.574Z,100258.56
